Time;durP1;ratioP1;P1;durP2;ratioP2;P2;SDS_P1;SDS_P2;PMS_P1;PMS_P2;Temp;Humidity;BMP_temperature;BMP_pressure;BME280_temperature;BME280_humidity;BME280_pressure;Samples;Min_cycle;Max_cycle;Signal;HPM_P1;HPM_P2
2022/12/06 00:01:34;;;;;;;3.10;2.77;;;;;;;;;;4972165;28;20183;-77
2022/12/06 00:04:01;;;;;;;2.83;2.43;;;;;;;;;;4966693;28;20177;-76
2022/12/06 00:06:27;;;;;;;3.10;2.80;;;;;;;;;;4970665;28;20278;-76
2022/12/06 00:08:53;;;;;;;4.13;3.03;;;;;;;;;;4971682;28;20187;-76
2022/12/06 00:11:23;;;;;;;3.00;2.70;;;;;;;;;;4978427;28;20191;-76
2022/12/06 00:13:52;;;;;;;2.97;2.70;;;;;;;;;;4971808;28;20214;-76
2022/12/06 00:16:17;;;;;;;2.83;2.33;;;;;;;;;;4970959;28;20499;-77
2022/12/06 00:18:43;;;;;;;3.40;3.03;;;;;;;;;;4974986;28;20239;-76
2022/12/06 00:21:10;;;;;;;3.40;2.53;;;;;;;;;;4968995;28;20201;-76
2022/12/06 00:23:37;;;;;;;3.03;2.70;;;;;;;;;;4985454;28;20228;-77
2022/12/06 00:26:02;;;;;;;3.03;2.73;;;;;;;;;;4969145;28;20181;-76
2022/12/06 00:28:27;;;;;;;3.23;2.67;;;;;;;;;;4973331;28;20193;-76
2022/12/06 00:30:56;;;;;;;2.63;2.43;;;;;;;;;;4974023;28;20185;-76
2022/12/06 00:33:21;;;;;;;3.03;2.73;;;;;;;;;;4971856;28;20201;-77
2022/12/06 00:35:53;;;;;;;3.23;2.87;;;;;;;;;;4964768;28;20342;-76
2022/12/06 00:38:19;;;;;;;3.00;2.53;;;;;;;;;;4970285;28;20181;-77
2022/12/06 00:40:44;;;;;;;2.87;2.23;;;;;;;;;;4971868;28;20231;-76
2022/12/06 00:43:09;;;;;;;4.97;2.70;;;;;;;;;;4971149;28;20185;-77
2022/12/06 00:45:34;;;;;;;3.37;2.50;;;;;;;;;;4968419;28;20195;-76
2022/12/06 00:47:59;;;;;;;2.40;2.20;;;;;;;;;;4969219;28;20231;-76
2022/12/06 00:50:25;;;;;;;2.70;2.40;;;;;;;;;;4967947;28;20600;-77
2022/12/06 00:52:50;;;;;;;2.53;2.13;;;;;;;;;;4978341;28;20200;-77
2022/12/06 00:55:15;;;;;;;3.37;2.50;;;;;;;;;;4987487;28;20181;-77
2022/12/06 00:57:41;;;;;;;2.87;2.50;;;;;;;;;;4967671;28;20189;-76
2022/12/06 01:00:06;;;;;;;3.63;2.80;;;;;;;;;;4971976;28;20192;-77
2022/12/06 01:02:31;;;;;;;2.90;2.60;;;;;;;;;;4971256;28;20188;-77
2022/12/06 01:04:57;;;;;;;2.83;2.60;;;;;;;;;;4968265;28;20180;-76
2022/12/06 01:07:22;;;;;;;2.67;2.47;;;;;;;;;;4975413;28;20187;-76
2022/12/06 01:09:47;;;;;;;2.77;2.57;;;;;;;;;;4986011;28;20176;-76
2022/12/06 01:12:12;;;;;;;2.50;2.30;;;;;;;;;;4973454;28;20180;-76
2022/12/06 01:14:37;;;;;;;2.80;2.60;;;;;;;;;;4971236;28;20200;-76
2022/12/06 01:17:03;;;;;;;2.70;2.50;;;;;;;;;;4973496;28;20200;-76
2022/12/06 01:19:28;;;;;;;2.93;2.63;;;;;;;;;;4976974;28;20172;-76
2022/12/06 01:21:53;;;;;;;3.20;2.90;;;;;;;;;;4974985;28;20247;-76
2022/12/06 01:24:18;;;;;;;2.40;2.17;;;;;;;;;;4975672;28;20216;-76
2022/12/06 01:26:43;;;;;;;2.67;2.47;;;;;;;;;;4969642;28;20244;-76
2022/12/06 01:29:09;;;;;;;2.47;2.23;;;;;;;;;;4975919;28;20185;-76
2022/12/06 01:31:34;;;;;;;3.23;2.60;;;;;;;;;;4973617;28;20246;-76
2022/12/06 01:34:00;;;;;;;3.00;2.70;;;;;;;;;;4972392;28;20212;-76
2022/12/06 01:36:25;;;;;;;2.63;2.20;;;;;;;;;;4979372;28;20203;-76
2022/12/06 01:38:54;;;;;;;2.60;2.40;;;;;;;;;;4971256;28;20272;-76
2022/12/06 01:41:20;;;;;;;2.70;2.50;;;;;;;;;;4980108;28;20177;-77
2022/12/06 01:43:45;;;;;;;3.03;2.70;;;;;;;;;;4975818;28;20187;-76
2022/12/06 01:46:11;;;;;;;3.40;3.10;;;;;;;;;;4971718;28;20331;-76
2022/12/06 01:48:36;;;;;;;3.33;2.87;;;;;;;;;;4972682;28;20192;-77
2022/12/06 01:51:02;;;;;;;2.47;2.27;;;;;;;;;;4972362;28;20252;-77
2022/12/06 01:53:27;;;;;;;2.97;2.47;;;;;;;;;;4976476;28;20215;-76
2022/12/06 01:55:53;;;;;;;2.90;2.60;;;;;;;;;;4978459;28;20176;-76
2022/12/06 01:58:22;;;;;;;3.17;2.50;;;;;;;;;;4984975;28;20184;-76
2022/12/06 02:00:47;;;;;;;3.07;2.77;;;;;;;;;;4988368;28;20458;-76
2022/12/06 02:03:17;;;;;;;2.90;2.60;;;;;;;;;;4971332;28;20460;-77
2022/12/06 02:05:43;;;;;;;2.40;2.20;;;;;;;;;;4972660;28;20185;-76
2022/12/06 02:08:09;;;;;;;3.20;2.90;;;;;;;;;;4973431;28;20193;-76
2022/12/06 02:10:35;;;;;;;2.90;2.60;;;;;;;;;;4971603;28;20193;-77
2022/12/06 02:13:00;;;;;;;3.30;2.73;;;;;;;;;;4982582;28;20223;-77
2022/12/06 02:15:32;;;;;;;3.77;2.83;;;;;;;;;;4970878;28;20207;-76
2022/12/06 02:18:07;;;;;;;2.53;2.33;;;;;;;;;;4974912;28;20200;-76
2022/12/06 02:20:40;;;;;;;3.20;2.90;;;;;;;;;;4970702;28;20179;-76
2022/12/06 02:23:23;;;;;;;3.37;2.60;;;;;;;;;;4970273;28;20236;-77
2022/12/06 02:25:48;;;;;;;2.90;2.70;;;;;;;;;;4963965;28;20173;-76
2022/12/06 02:28:29;;;;;;;2.93;2.73;;;;;;;;;;4976098;28;20187;-76
2022/12/06 02:30:58;;;;;;;3.77;3.47;;;;;;;;;;4973361;28;20176;-76
2022/12/06 02:33:38;;;;;;;3.47;3.17;;;;;;;;;;4982014;28;20196;-76
2022/12/06 02:36:04;;;;;;;6.23;3.73;;;;;;;;;;4968001;28;20259;-76
2022/12/06 02:38:32;;;;;;;3.80;3.33;;;;;;;;;;4972567;28;20192;-76
2022/12/06 02:41:00;;;;;;;3.73;3.20;;;;;;;;;;4984345;28;20266;-76
2022/12/06 02:43:38;;;;;;;3.37;3.07;;;;;;;;;;4972080;28;21260;-76
2022/12/06 02:46:03;;;;;;;3.13;2.83;;;;;;;;;;4966313;28;20280;-76
2022/12/06 02:48:30;;;;;;;5.23;4.40;;;;;;;;;;4969313;28;20271;-77
2022/12/06 02:50:58;;;;;;;4.47;3.60;;;;;;;;;;4976273;28;20259;-77
2022/12/06 02:53:24;;;;;;;3.60;3.30;;;;;;;;;;4979481;28;20314;-77
2022/12/06 02:55:50;;;;;;;3.93;3.40;;;;;;;;;;4966891;28;20184;-77
2022/12/06 02:58:15;;;;;;;3.50;3.20;;;;;;;;;;4973389;28;20232;-77
2022/12/06 03:00:42;;;;;;;3.60;3.10;;;;;;;;;;4973212;28;20186;-76
2022/12/06 03:03:25;;;;;;;3.90;3.43;;;;;;;;;;4978063;28;20415;-76
2022/12/06 03:06:00;;;;;;;3.63;2.90;;;;;;;;;;4972667;28;20212;-77
2022/12/06 03:08:31;;;;;;;3.30;2.90;;;;;;;;;;4982867;28;20183;-76
2022/12/06 03:10:57;;;;;;;4.10;3.70;;;;;;;;;;4973212;28;20181;-77
2022/12/06 03:13:32;;;;;;;4.07;3.60;;;;;;;;;;4971542;28;20196;-77
2022/12/06 03:15:59;;;;;;;3.73;3.43;;;;;;;;;;4972424;28;20184;-76
2022/12/06 03:18:30;;;;;;;4.43;3.83;;;;;;;;;;4970485;28;20209;-76
2022/12/06 03:20:59;;;;;;;4.03;3.67;;;;;;;;;;4967731;28;20181;-77
2022/12/06 03:23:30;;;;;;;4.30;3.90;;;;;;;;;;4974870;28;20245;-76
2022/12/06 03:25:58;;;;;;;3.83;3.43;;;;;;;;;;4970794;28;20180;-76
2022/12/06 03:28:23;;;;;;;4.67;4.20;;;;;;;;;;4969376;28;20213;-77
2022/12/06 03:30:50;;;;;;;3.50;3.20;;;;;;;;;;4969506;28;20185;-77
2022/12/06 03:33:16;;;;;;;4.10;3.50;;;;;;;;;;4967383;28;20214;-77
2022/12/06 03:35:42;;;;;;;3.83;3.43;;;;;;;;;;4976188;28;20264;-77
2022/12/06 03:38:10;;;;;;;3.47;3.17;;;;;;;;;;4971700;28;20211;-77
2022/12/06 03:40:36;;;;;;;3.83;3.37;;;;;;;;;;4976175;28;20181;-76
2022/12/06 03:43:02;;;;;;;6.67;3.30;;;;;;;;;;4970158;28;20181;-77
2022/12/06 03:45:31;;;;;;;5.63;4.40;;;;;;;;;;4974021;28;20187;-77
2022/12/06 03:48:15;;;;;;;4.73;4.13;;;;;;;;;;4970277;28;20188;-76
2022/12/06 03:50:44;;;;;;;4.40;4.00;;;;;;;;;;4985708;28;20278;-77
2022/12/06 03:53:09;;;;;;;5.10;3.83;;;;;;;;;;4983119;28;20223;-76
2022/12/06 03:55:35;;;;;;;4.00;3.60;;;;;;;;;;4970962;28;20176;-76
2022/12/06 03:58:00;;;;;;;5.10;4.10;;;;;;;;;;4970222;28;20188;-77
2022/12/06 04:00:25;;;;;;;6.70;4.47;;;;;;;;;;4976078;28;20267;-76
2022/12/06 04:02:50;;;;;;;5.23;4.73;;;;;;;;;;4970365;28;20283;-77
2022/12/06 04:05:16;;;;;;;5.03;4.53;;;;;;;;;;4972163;28;20192;-76
2022/12/06 04:07:41;;;;;;;4.70;3.93;;;;;;;;;;4972806;28;20176;-76
2022/12/06 04:10:06;;;;;;;4.67;4.07;;;;;;;;;;4972752;28;20188;-77
2022/12/06 04:15:17;;;;;;;4.37;3.97;;;;;;;;;;4971257;28;20204;-76
2022/12/06 04:20:27;;;;;;;4.63;4.23;;;;;;;;;;4971602;28;20324;-77
2022/12/06 04:23:05;;;;;;;5.17;4.30;;;;;;;;;;4965769;28;20264;-77
2022/12/06 04:25:31;;;;;;;4.20;3.80;;;;;;;;;;4968165;28;20191;-76
2022/12/06 04:38:52;;;;;;;4.70;4.20;;;;;;;;;;4969316;28;20184;-77
2022/12/06 04:44:02;;;;;;;5.20;4.50;;;;;;;;;;4973038;28;20243;-76
2022/12/06 04:46:27;;;;;;;4.90;4.07;;;;;;;;;;4969655;28;20184;-77
2022/12/06 04:48:52;;;;;;;4.93;4.10;;;;;;;;;;4972476;28;20227;-77
2022/12/06 04:51:19;;;;;;;4.43;4.03;;;;;;;;;;4971094;28;20275;-77
2022/12/06 04:53:44;;;;;;;5.47;4.97;;;;;;;;;;4968904;28;20200;-76
2022/12/06 04:56:10;;;;;;;9.63;8.77;;;;;;;;;;4969204;28;20264;-76
2022/12/06 04:58:35;;;;;;;7.93;7.23;;;;;;;;;;4966008;28;20200;-76
2022/12/06 05:01:00;;;;;;;5.43;4.93;;;;;;;;;;4973024;28;20264;-77
2022/12/06 05:03:25;;;;;;;4.53;3.93;;;;;;;;;;4971702;28;20199;-76
2022/12/06 05:05:51;;;;;;;4.40;3.67;;;;;;;;;;4975482;28;20176;-77
2022/12/06 05:08:16;;;;;;;6.57;5.73;;;;;;;;;;4972884;28;20185;-76
2022/12/06 05:10:45;;;;;;;6.00;5.40;;;;;;;;;;4973304;28;20199;-76
2022/12/06 05:13:11;;;;;;;6.23;5.63;;;;;;;;;;4968375;28;20212;-76
2022/12/06 05:15:36;;;;;;;4.43;4.03;;;;;;;;;;4970686;28;20176;-76
2022/12/06 05:18:01;;;;;;;6.77;4.60;;;;;;;;;;4963311;28;20293;-77
2022/12/06 05:20:26;;;;;;;4.47;3.87;;;;;;;;;;4971664;28;20198;-76
2022/12/06 05:22:51;;;;;;;8.33;7.63;;;;;;;;;;4973151;28;20224;-77
2022/12/06 05:25:17;;;;;;;4.40;4.00;;;;;;;;;;4974509;28;20181;-77
2022/12/06 05:27:43;;;;;;;4.00;3.60;;;;;;;;;;4969722;28;20209;-77
2022/12/06 05:30:08;;;;;;;4.37;3.90;;;;;;;;;;4967218;28;20194;-77
2022/12/06 05:32:34;;;;;;;5.00;4.40;;;;;;;;;;4967622;28;20267;-77
2022/12/06 05:34:59;;;;;;;5.50;4.83;;;;;;;;;;4969299;28;20181;-77
2022/12/06 05:37:24;;;;;;;4.70;4.30;;;;;;;;;;4970819;28;20177;-76
2022/12/06 05:39:49;;;;;;;4.07;3.67;;;;;;;;;;4972833;28;20203;-76
2022/12/06 05:42:14;;;;;;;5.20;4.40;;;;;;;;;;4967748;28;20176;-76
2022/12/06 05:44:40;;;;;;;4.70;4.20;;;;;;;;;;4984916;28;20180;-77
2022/12/06 05:47:05;;;;;;;8.10;6.90;;;;;;;;;;4963152;28;20193;-77
2022/12/06 05:49:30;;;;;;;4.83;4.33;;;;;;;;;;4969767;28;20193;-76
2022/12/06 05:51:55;;;;;;;4.47;4.07;;;;;;;;;;4969245;28;20196;-77
2022/12/06 05:54:21;;;;;;;4.87;4.37;;;;;;;;;;4970049;28;20295;-77
2022/12/06 05:56:48;;;;;;;4.13;3.73;;;;;;;;;;4979007;28;20181;-77
2022/12/06 05:59:13;;;;;;;3.87;3.47;;;;;;;;;;4979734;28;20398;-77
2022/12/06 06:01:38;;;;;;;4.30;3.87;;;;;;;;;;4969231;28;20187;-76
2022/12/06 06:04:03;;;;;;;4.73;3.73;;;;;;;;;;4977936;28;20180;-76
2022/12/06 06:06:28;;;;;;;6.77;4.43;;;;;;;;;;4974414;28;20187;-76
2022/12/06 06:08:54;;;;;;;5.53;4.50;;;;;;;;;;4971388;28;20467;-77
2022/12/06 06:11:22;;;;;;;4.87;4.00;;;;;;;;;;4971782;28;20204;-76
2022/12/06 06:13:47;;;;;;;4.40;4.00;;;;;;;;;;4969558;28;20212;-76
2022/12/06 06:16:12;;;;;;;7.50;4.40;;;;;;;;;;4974393;28;20192;-76
2022/12/06 06:18:38;;;;;;;6.67;5.27;;;;;;;;;;4970120;28;20228;-77
2022/12/06 06:21:03;;;;;;;4.27;3.77;;;;;;;;;;4971838;28;20192;-77
2022/12/06 06:23:29;;;;;;;5.07;4.30;;;;;;;;;;4971093;28;20221;-77
2022/12/06 06:25:54;;;;;;;6.43;4.90;;;;;;;;;;4978478;28;20184;-77
2022/12/06 06:28:20;;;;;;;5.33;3.97;;;;;;;;;;4974077;28;20200;-76
2022/12/06 06:30:45;;;;;;;10.23;7.87;;;;;;;;;;4974663;28;20181;-77
2022/12/06 06:33:11;;;;;;;13.93;12.53;;;;;;;;;;4971388;28;20229;-77
2022/12/06 06:35:37;;;;;;;11.60;5.80;;;;;;;;;;4967378;28;20208;-77
2022/12/06 06:38:02;;;;;;;7.43;6.67;;;;;;;;;;4974186;28;20262;-77
2022/12/06 06:40:28;;;;;;;5.73;5.13;;;;;;;;;;4984353;28;20200;-76
2022/12/06 06:42:53;;;;;;;8.03;7.00;;;;;;;;;;4976614;28;20184;-77
2022/12/06 06:45:18;;;;;;;7.90;5.87;;;;;;;;;;4973398;28;20181;-76
2022/12/06 06:47:43;;;;;;;5.73;5.10;;;;;;;;;;4982325;28;20183;-77
2022/12/06 06:50:09;;;;;;;5.53;5.03;;;;;;;;;;4976711;28;20177;-77
2022/12/06 06:52:34;;;;;;;5.07;4.67;;;;;;;;;;4973397;28;20181;-77
2022/12/06 06:54:59;;;;;;;9.53;8.80;;;;;;;;;;4976057;28;20223;-76
2022/12/06 06:57:24;;;;;;;5.90;5.30;;;;;;;;;;4971944;28;20207;-77
2022/12/06 06:59:50;;;;;;;4.93;4.43;;;;;;;;;;4983354;28;20169;-77
2022/12/06 07:02:16;;;;;;;6.17;5.23;;;;;;;;;;4972936;28;20212;-77
2022/12/06 07:04:41;;;;;;;6.80;5.50;;;;;;;;;;4975193;28;20247;-78
2022/12/06 07:07:06;;;;;;;6.00;5.40;;;;;;;;;;4976505;28;20188;-77
2022/12/06 07:09:32;;;;;;;7.17;5.37;;;;;;;;;;4973670;28;20184;-77
2022/12/06 07:11:57;;;;;;;8.03;5.50;;;;;;;;;;4972432;28;20181;-77
2022/12/06 07:14:22;;;;;;;8.30;6.97;;;;;;;;;;4980962;28;20259;-76
2022/12/06 07:16:47;;;;;;;12.37;9.57;;;;;;;;;;4968576;28;20184;-77
2022/12/06 07:19:13;;;;;;;11.53;8.57;;;;;;;;;;4967716;28;20282;-76
2022/12/06 07:21:38;;;;;;;36.90;32.77;;;;;;;;;;4972206;28;20169;-77
2022/12/06 07:24:03;;;;;;;11.00;7.40;;;;;;;;;;4973596;28;20196;-77
2022/12/06 07:26:29;;;;;;;9.73;6.70;;;;;;;;;;4970439;28;20260;-77
2022/12/06 07:28:56;;;;;;;8.33;5.77;;;;;;;;;;4970758;28;20168;-77
2022/12/06 07:31:23;;;;;;;6.60;5.83;;;;;;;;;;4977855;28;20192;-77
2022/12/06 07:33:53;;;;;;;6.43;5.53;;;;;;;;;;4966668;28;20285;-77
2022/12/06 07:36:18;;;;;;;6.67;5.83;;;;;;;;;;4976332;28;20185;-77
2022/12/06 07:38:48;;;;;;;7.10;5.60;;;;;;;;;;4971924;28;20199;-77
2022/12/06 07:46:42;;;;;;;7.00;6.07;;;;;;;;;;4968240;28;20191;-77
2022/12/06 07:49:07;;;;;;;8.37;6.60;;;;;;;;;;4969615;28;20185;-77
2022/12/06 07:51:32;;;;;;;8.67;6.60;;;;;;;;;;4973216;28;20243;-77
2022/12/06 07:53:58;;;;;;;8.03;7.00;;;;;;;;;;4971697;28;20209;-77
2022/12/06 07:56:23;;;;;;;11.97;9.10;;;;;;;;;;4972995;28;20264;-78
2022/12/06 07:58:48;;;;;;;12.13;9.83;;;;;;;;;;4970399;28;20247;-77
2022/12/06 08:01:13;;;;;;;11.53;8.47;;;;;;;;;;4968712;28;20181;-76
2022/12/06 08:03:39;;;;;;;10.37;8.83;;;;;;;;;;4979592;28;20175;-76
2022/12/06 08:06:04;;;;;;;9.90;8.27;;;;;;;;;;4970446;28;20184;-77
2022/12/06 08:08:30;;;;;;;11.00;8.33;;;;;;;;;;4970001;28;20187;-77
2022/12/06 08:10:59;;;;;;;11.63;7.93;;;;;;;;;;4967916;28;20181;-78
2022/12/06 08:13:24;;;;;;;11.23;7.93;;;;;;;;;;4967574;28;20216;-76
2022/12/06 08:15:49;;;;;;;13.90;9.23;;;;;;;;;;4971750;28;20230;-77
2022/12/06 08:18:14;;;;;;;10.93;8.57;;;;;;;;;;4972978;28;20204;-78
2022/12/06 08:20:40;;;;;;;12.20;9.40;;;;;;;;;;4974639;28;20184;-78
2022/12/06 08:23:05;;;;;;;10.23;7.47;;;;;;;;;;4968947;28;20298;-78
2022/12/06 08:25:30;;;;;;;10.53;8.17;;;;;;;;;;4962277;28;20185;-77
2022/12/06 08:27:55;;;;;;;11.60;8.90;;;;;;;;;;4970216;28;20189;-76
2022/12/06 08:30:21;;;;;;;12.20;9.10;;;;;;;;;;4975245;28;20183;-77
2022/12/06 08:32:46;;;;;;;9.87;6.93;;;;;;;;;;4970728;28;20188;-77
2022/12/06 08:35:11;;;;;;;13.67;9.90;;;;;;;;;;4975786;28;20207;-78
2022/12/06 08:37:36;;;;;;;12.47;9.93;;;;;;;;;;4982075;28;20212;-77
2022/12/06 08:40:02;;;;;;;12.77;9.53;;;;;;;;;;4970801;28;20271;-77
2022/12/06 08:42:27;;;;;;;11.67;8.37;;;;;;;;;;4968569;28;20183;-77
2022/12/06 08:44:53;;;;;;;13.37;9.93;;;;;;;;;;4974184;28;20172;-77
2022/12/06 08:47:18;;;;;;;12.50;10.57;;;;;;;;;;4971706;28;20183;-77
2022/12/06 08:49:44;;;;;;;14.70;11.23;;;;;;;;;;4972887;28;20180;-76
2022/12/06 08:52:09;;;;;;;14.20;9.97;;;;;;;;;;4971383;28;20189;-77
2022/12/06 08:54:35;;;;;;;16.07;11.93;;;;;;;;;;4970035;28;20204;-77
2022/12/06 08:57:00;;;;;;;15.90;11.40;;;;;;;;;;4969521;28;20180;-78
2022/12/06 08:59:26;;;;;;;14.90;9.90;;;;;;;;;;4967050;28;20184;-78
2022/12/06 09:01:51;;;;;;;17.80;12.53;;;;;;;;;;4967459;28;20181;-77
2022/12/06 09:04:16;;;;;;;16.60;12.83;;;;;;;;;;4972033;28;20181;-78
2022/12/06 09:06:42;;;;;;;18.13;11.83;;;;;;;;;;4981635;28;20207;-78
2022/12/06 09:09:08;;;;;;;18.10;11.13;;;;;;;;;;4969845;28;20296;-77
2022/12/06 09:11:33;;;;;;;8.43;5.67;;;;;;;;;;4975967;28;20219;-77
2022/12/06 09:13:58;;;;;;;19.10;11.60;;;;;;;;;;4972741;28;20216;-77
2022/12/06 09:16:23;;;;;;;19.77;13.23;;;;;;;;;;4972360;28;20180;-76
2022/12/06 09:18:50;;;;;;;15.33;8.77;;;;;;;;;;4970933;28;20331;-78
2022/12/06 09:21:17;;;;;;;21.97;11.93;;;;;;;;;;4970269;28;20231;-81
2022/12/06 09:23:43;;;;;;;19.27;13.53;;;;;;;;;;4978376;28;20240;-81
2022/12/06 09:26:08;;;;;;;24.27;10.87;;;;;;;;;;4969643;28;20195;-81
2022/12/06 09:28:34;;;;;;;23.10;15.73;;;;;;;;;;4977989;28;20176;-81
2022/12/06 09:31:18;;;;;;;21.47;14.37;;;;;;;;;;5098182;27;20554;-82
2022/12/06 09:33:43;;;;;;;21.03;13.63;;;;;;;;;;5061441;28;20208;-82
2022/12/06 09:36:29;;;;;;;19.73;11.70;;;;;;;;;;5063133;28;20173;-82
2022/12/06 09:38:57;;;;;;;17.90;12.07;;;;;;;;;;5069347;28;20188;-81
2022/12/06 09:41:41;;;;;;;24.90;14.87;;;;;;;;;;5085532;28;20198;-82
2022/12/06 09:44:06;;;;;;;21.90;12.53;;;;;;;;;;5068470;28;20184;-82
2022/12/06 09:46:50;;;;;;;22.77;14.70;;;;;;;;;;5061821;28;20260;-82
2022/12/06 09:49:15;;;;;;;20.87;14.33;;;;;;;;;;5068578;28;20204;-82
2022/12/06 09:51:52;;;;;;;29.90;16.67;;;;;;;;;;5065137;28;20189;-82
2022/12/06 09:54:25;;;;;;;28.37;14.37;;;;;;;;;;5070302;28;20172;-82
2022/12/06 09:56:56;;;;;;;27.67;16.07;;;;;;;;;;5065313;28;20200;-82
2022/12/06 09:59:35;;;;;;;25.33;15.90;;;;;;;;;;5080026;28;20177;-82
2022/12/06 10:02:09;;;;;;;42.00;13.53;;;;;;;;;;5069023;28;20181;-82
2022/12/06 10:04:44;;;;;;;35.53;15.70;;;;;;;;;;5063970;28;20183;-82
2022/12/06 10:07:24;;;;;;;34.80;16.37;;;;;;;;;;5064705;28;20384;-82
2022/12/06 10:10:01;;;;;;;46.10;13.80;;;;;;;;;;5060415;28;20221;-82
2022/12/06 10:12:37;;;;;;;29.73;13.23;;;;;;;;;;5063696;28;20177;-82
2022/12/06 10:15:02;;;;;;;47.27;15.13;;;;;;;;;;5071711;28;20172;-82
2022/12/06 10:17:35;;;;;;;43.50;15.70;;;;;;;;;;5048238;28;20273;-82
2022/12/06 10:20:19;;;;;;;46.23;12.50;;;;;;;;;;5051119;28;20181;-82
2022/12/06 10:22:56;;;;;;;37.23;13.63;;;;;;;;;;5050840;28;20165;-82
2022/12/06 10:25:23;;;;;;;58.60;14.77;;;;;;;;;;5047684;28;20173;-82
2022/12/06 10:28:18;;;;;;;38.70;14.03;;;;;;;;;;5045559;28;20209;-82
2022/12/06 10:30:46;;;;;;;49.67;12.87;;;;;;;;;;5030207;28;20252;-82
2022/12/06 10:33:20;;;;;;;59.73;14.30;;;;;;;;;;5044605;28;20210;-82
2022/12/06 10:35:45;;;;;;;49.77;14.27;;;;;;;;;;5021528;28;20185;-82
2022/12/06 10:38:20;;;;;;;69.70;13.63;;;;;;;;;;5028820;28;20292;-82
2022/12/06 10:40:54;;;;;;;52.70;11.57;;;;;;;;;;5018248;28;20175;-82
2022/12/06 10:43:28;;;;;;;49.07;13.40;;;;;;;;;;5011803;28;20178;-83
2022/12/06 10:49:05;;;;;;;43.40;11.80;;;;;;;;;;5024081;28;20189;-82
2022/12/06 10:51:33;;;;;;;67.13;11.80;;;;;;;;;;5013510;28;20221;-82
2022/12/06 10:54:02;;;;;;;50.87;12.93;;;;;;;;;;5004077;28;20183;-82
2022/12/06 10:56:29;;;;;;;41.50;11.43;;;;;;;;;;5003481;28;20173;-82
2022/12/06 10:59:01;;;;;;;50.13;11.07;;;;;;;;;;5012851;28;20225;-82
2022/12/06 11:01:31;;;;;;;53.90;13.63;;;;;;;;;;5005256;28;20183;-82
2022/12/06 11:04:15;;;;;;;33.60;12.27;;;;;;;;;;5011965;28;20183;-82
2022/12/06 11:07:04;;;;;;;31.23;11.63;;;;;;;;;;5011775;28;20201;-82
2022/12/06 11:09:32;;;;;;;27.00;12.27;;;;;;;;;;5002942;28;20199;-82
2022/12/06 11:11:58;;;;;;;28.93;14.60;;;;;;;;;;5011449;28;20179;-82
2022/12/06 11:14:23;;;;;;;15.83;7.53;;;;;;;;;;5012426;28;20184;-82
2022/12/06 11:16:58;;;;;;;16.40;9.93;;;;;;;;;;5008320;28;20185;-82
2022/12/06 11:19:35;;;;;;;20.17;8.23;;;;;;;;;;5004730;28;20269;-82
2022/12/06 11:22:10;;;;;;;19.97;8.30;;;;;;;;;;5012599;28;20197;-82
2022/12/06 11:24:39;;;;;;;19.47;9.40;;;;;;;;;;5008023;28;20170;-82
2022/12/06 11:27:23;;;;;;;15.27;9.03;;;;;;;;;;5014337;28;20270;-82
2022/12/06 11:29:49;;;;;;;15.93;8.53;;;;;;;;;;5024804;28;20238;-82
2022/12/06 11:32:15;;;;;;;15.27;7.77;;;;;;;;;;5040785;28;20178;-82
2022/12/06 11:34:47;;;;;;;20.47;9.63;;;;;;;;;;5050654;28;20264;-82
2022/12/06 11:37:15;;;;;;;14.33;8.93;;;;;;;;;;5041868;28;20182;-82
2022/12/06 11:39:40;;;;;;;13.33;5.90;;;;;;;;;;5050471;28;20178;-82
2022/12/06 11:42:06;;;;;;;18.70;7.27;;;;;;;;;;5046145;28;20250;-82
2022/12/06 11:44:44;;;;;;;14.47;6.80;;;;;;;;;;5042001;28;20175;-82
2022/12/06 11:47:13;;;;;;;8.03;5.27;;;;;;;;;;5041708;28;20182;-82
2022/12/06 11:49:39;;;;;;;12.17;7.80;;;;;;;;;;5038396;28;20212;-83
2022/12/06 11:52:07;;;;;;;10.47;6.97;;;;;;;;;;5048308;28;20175;-82
2022/12/06 11:54:53;;;;;;;9.93;6.97;;;;;;;;;;5041858;28;20240;-82
2022/12/06 11:57:20;;;;;;;19.03;8.33;;;;;;;;;;5046306;28;20178;-82
2022/12/06 12:00:12;;;;;;;19.17;9.10;;;;;;;;;;5050532;28;20177;-82
2022/12/06 12:02:37;;;;;;;14.10;6.27;;;;;;;;;;5045036;28;20194;-82
2022/12/06 12:05:09;;;;;;;9.33;5.40;;;;;;;;;;5046853;28;20182;-82
2022/12/06 12:07:34;;;;;;;47.13;6.43;;;;;;;;;;5043656;28;20179;-82
2022/12/06 12:10:01;;;;;;;18.47;4.60;;;;;;;;;;5045861;28;20202;-82
2022/12/06 12:15:26;;;;;;;21.50;4.90;;;;;;;;;;5057752;28;20181;-82
2022/12/06 12:17:52;;;;;;;6.83;4.13;;;;;;;;;;5038768;28;20198;-82
2022/12/06 12:20:20;;;;;;;5.73;3.43;;;;;;;;;;5044312;28;20186;-82
2022/12/06 12:22:51;;;;;;;16.60;5.93;;;;;;;;;;5055014;28;20181;-81
2022/12/06 12:25:27;;;;;;;14.80;5.80;;;;;;;;;;5049072;28;20178;-82
2022/12/06 12:27:53;;;;;;;13.50;3.90;;;;;;;;;;5041375;28;20174;-82
2022/12/06 12:30:22;;;;;;;13.97;4.57;;;;;;;;;;5041718;28;20222;-81
2022/12/06 12:32:48;;;;;;;21.80;4.73;;;;;;;;;;5043166;28;20178;-82
2022/12/06 12:35:36;;;;;;;11.10;3.10;;;;;;;;;;5041048;28;20201;-82
2022/12/06 12:38:03;;;;;;;10.83;3.37;;;;;;;;;;5031783;28;20182;-82
2022/12/06 12:40:40;;;;;;;8.33;3.80;;;;;;;;;;5042113;28;20178;-82
2022/12/06 12:43:07;;;;;;;8.33;3.50;;;;;;;;;;5042243;28;20205;-82
2022/12/06 12:45:32;;;;;;;2.23;2.03;;;;;;;;;;5042691;28;20193;-82
2022/12/06 12:47:58;;;;;;;13.20;4.47;;;;;;;;;;5052120;28;20170;-82
2022/12/06 12:50:24;;;;;;;7.90;4.23;;;;;;;;;;5044483;28;20304;-82
2022/12/06 12:52:50;;;;;;;12.53;4.67;;;;;;;;;;5047727;28;20266;-82
2022/12/06 12:55:15;;;;;;;5.03;2.93;;;;;;;;;;5040932;28;20174;-82
2022/12/06 12:57:42;;;;;;;10.53;4.47;;;;;;;;;;5049730;28;20193;-82
2022/12/06 13:00:19;;;;;;;6.23;4.10;;;;;;;;;;5058903;28;20182;-82
2022/12/06 13:02:48;;;;;;;3.83;2.40;;;;;;;;;;5040131;28;20174;-82
2022/12/06 13:05:16;;;;;;;7.30;3.67;;;;;;;;;;5043255;28;20173;-82
2022/12/06 13:07:42;;;;;;;4.47;3.33;;;;;;;;;;5041696;28;20213;-82
2022/12/06 13:10:07;;;;;;;7.00;4.70;;;;;;;;;;5039570;28;20214;-82
2022/12/06 13:12:49;;;;;;;7.80;4.03;;;;;;;;;;5044447;28;20178;-82
2022/12/06 13:15:14;;;;;;;7.00;5.10;;;;;;;;;;5050105;28;20182;-82
2022/12/06 13:17:41;;;;;;;5.00;4.10;;;;;;;;;;5044217;28;20186;-82
2022/12/06 13:20:17;;;;;;;6.83;5.40;;;;;;;;;;5038736;28;20187;-82
2022/12/06 13:22:44;;;;;;;8.57;5.67;;;;;;;;;;5046406;28;20169;-82
2022/12/06 13:25:10;;;;;;;5.43;4.73;;;;;;;;;;5047145;28;20220;-82
2022/12/06 13:27:38;;;;;;;5.80;4.37;;;;;;;;;;5041269;28;20222;-82
2022/12/06 13:30:05;;;;;;;5.07;4.57;;;;;;;;;;5039539;28;20241;-82
2022/12/06 13:32:39;;;;;;;6.63;4.63;;;;;;;;;;5065641;28;20265;-82
2022/12/06 13:35:16;;;;;;;6.53;4.43;;;;;;;;;;5045838;28;20173;-82
2022/12/06 13:37:51;;;;;;;3.90;2.93;;;;;;;;;;5044330;28;20173;-82
2022/12/06 13:40:31;;;;;;;5.17;4.50;;;;;;;;;;5047637;28;20174;-82
2022/12/06 13:42:57;;;;;;;7.63;6.03;;;;;;;;;;5043699;28;20182;-82
2022/12/06 13:45:41;;;;;;;5.33;4.70;;;;;;;;;;5042149;28;20185;-82
2022/12/06 13:48:39;;;;;;;5.70;5.10;;;;;;;;;;5042682;28;20181;-82
2022/12/06 13:51:24;;;;;;;7.33;5.23;;;;;;;;;;4999953;28;20225;-82
2022/12/06 13:54:04;;;;;;;6.50;4.47;;;;;;;;;;5030314;28;20194;-82
2022/12/06 13:56:33;;;;;;;4.90;3.77;;;;;;;;;;5044652;28;20186;-82
2022/12/06 13:59:03;;;;;;;5.17;4.27;;;;;;;;;;5046939;28;20171;-82
2022/12/06 14:01:31;;;;;;;6.77;5.13;;;;;;;;;;5037725;28;20202;-82
2022/12/06 14:03:56;;;;;;;5.97;4.27;;;;;;;;;;5042705;28;20205;-82
2022/12/06 14:06:39;;;;;;;3.67;2.80;;;;;;;;;;5042107;28;20182;-82
2022/12/06 14:09:07;;;;;;;3.20;2.90;;;;;;;;;;5045638;28;20184;-82
2022/12/06 14:11:33;;;;;;;4.73;3.47;;;;;;;;;;5036239;28;20178;-82
2022/12/06 14:13:59;;;;;;;4.97;4.30;;;;;;;;;;5044195;28;20175;-83
2022/12/06 14:16:31;;;;;;;4.47;3.27;;;;;;;;;;5047099;28;20208;-82
2022/12/06 14:18:56;;;;;;;5.00;4.23;;;;;;;;;;5047634;28;20194;-82
2022/12/06 14:21:36;;;;;;;14.03;9.90;;;;;;;;;;5047712;28;20192;-81
2022/12/06 14:24:02;;;;;;;5.90;5.00;;;;;;;;;;5047923;28;20175;-82
2022/12/06 14:26:29;;;;;;;6.17;4.80;;;;;;;;;;5047465;28;20170;-81
2022/12/06 14:28:56;;;;;;;6.03;5.43;;;;;;;;;;5052750;28;20180;-82
2022/12/06 14:31:24;;;;;;;7.20;6.17;;;;;;;;;;5026451;28;20347;-82
2022/12/06 14:33:49;;;;;;;7.00;5.30;;;;;;;;;;5026632;28;20185;-82
2022/12/06 14:36:19;;;;;;;6.23;5.63;;;;;;;;;;5034350;28;20182;-82
2022/12/06 14:38:52;;;;;;;4.97;4.40;;;;;;;;;;5032515;28;20181;-82
2022/12/06 14:44:11;;;;;;;5.80;5.00;;;;;;;;;;5051870;28;20193;-82
2022/12/06 14:46:36;;;;;;;6.53;5.10;;;;;;;;;;5031387;28;20185;-82
2022/12/06 14:51:45;;;;;;;5.63;4.97;;;;;;;;;;5044892;28;20202;-82
2022/12/06 14:54:18;;;;;;;5.00;4.00;;;;;;;;;;5036716;28;20186;-81
2022/12/06 14:56:43;;;;;;;4.40;3.97;;;;;;;;;;5027014;28;20174;-82
2022/12/06 14:59:09;;;;;;;4.93;4.17;;;;;;;;;;5034924;28;20174;-82
2022/12/06 15:01:44;;;;;;;5.20;3.87;;;;;;;;;;5027518;28;20179;-82
2022/12/06 15:04:21;;;;;;;5.27;4.77;;;;;;;;;;5040544;28;20180;-82
2022/12/06 15:06:56;;;;;;;4.13;3.13;;;;;;;;;;5029631;28;20182;-82
2022/12/06 15:09:22;;;;;;;5.13;4.07;;;;;;;;;;5035024;28;20268;-82
2022/12/06 15:14:48;;;;;;;10.23;7.13;;;;;;;;;;5052538;28;20305;-82
2022/12/06 15:17:15;;;;;;;6.67;5.87;;;;;;;;;;5029290;28;20236;-82
2022/12/06 15:19:48;;;;;;;6.30;5.50;;;;;;;;;;5028601;28;20170;-82
2022/12/06 15:22:21;;;;;;;6.83;5.73;;;;;;;;;;5054909;28;20213;-82